Wednesday, July 24, 2019, 4:31 AM EDT
Back to Local

KLWM, Lawrence Municipal Airport

Location: North Andover, MA, United States Lat: 42.717
Local Time: 4:31 AM EDT ( 8:31 GMT) Lon: -71.133
Time Zone: US/Eastern Elev: 147 ft

Show me the last for .
Show Decoded

2019-07-24 03:54 METAR KLWM 240754Z AUTO 00000KT 10SM CLR 18/16 A2990 RMK AO2 RAE27 SLP124 P0000
                 T01780161 =
2019-07-24 02:54 METAR KLWM 240654Z AUTO 00000KT 10SM -RA OVC120 18/16 A2991 RMK AO2 RAB16E31B54
                 SLP128 P0000 T01780156 =
2019-07-24 01:54 METAR KLWM 240554Z AUTO 23003KT 10SM BKN095 OVC110 18/16 A2993 RMK AO2 SLP134
                 T01780156 10194 20178 55007 =
2019-07-24 00:54 METAR KLWM 240454Z AUTO 17003KT 10SM FEW100 BKN120 18/15 A2993 RMK AO2 SLP134
                 T01830150 402110156 =
2019-07-23 23:54 METAR KLWM 240354Z AUTO 00000KT 10SM FEW110 18/15 A2992 RMK AO2 SLP133 T01830150
                 =
2019-07-23 22:54 METAR KLWM 240254Z AUTO 21004KT 10SM CLR 18/15 A2995 RMK AO2 SLP141 T01830150
                 51012 =
2019-07-23 21:54 METAR KLWM 240154Z 20003KT 10SM OVC100 19/15 A2995 RMK AO2 SLP140 T01890150 =
2019-07-23 20:54 METAR KLWM 240054Z 21004KT 10SM BKN100 19/14 A2992 RMK AO2 SLP132 T01890144 =
2019-07-23 19:54 METAR KLWM 232354Z 00000KT 10SM SCT085 19/15 A2992 RMK AO2 SLP130 T01940150
                 10211 20183 51006 =
2019-07-23 18:54 METAR KLWM 232254Z 00000KT 10SM SCT090 21/14 A2991 RMK AO2 SLP128 T02060139 =
2019-07-23 17:54 METAR KLWM 232154Z 29003KT 10SM OVC080 21/14 A2991 RMK AO2 SLP129 T02060139 =
2019-07-23 16:54 METAR KLWM 232054Z 02005KT 10SM BKN075 OVC100 21/13 A2990 RMK AO2 SLP123
                 T02060133 53007 =
2019-07-23 15:54 METAR KLWM 231954Z 34004KT 10SM SCT090 OVC100 20/14 A2989 RMK AO2 SLP121
                 T02000139 =
2019-07-23 14:54 METAR KLWM 231854Z 35008KT 10SM OVC050 20/13 A2987 RMK AO2 SLP113 T02000133 =
2019-07-23 13:54 METAR KLWM 231754Z 36007KT 320V030 10SM OVC042 18/13 A2988 RMK AO2 SLP116 60012
                 T01830133 10189 20156 51007 =
2019-07-23 12:54 METAR KLWM 231654Z 01010G20KT 330V030 10SM SCT016 OVC047 19/14 A2986 RMK AO2
                 SLP112 T01890144 =
2019-07-23 11:54 METAR KLWM 231554Z 03011KT 10SM FEW031 OVC045 16/13 A2987 RMK AO2 RAE52 SLP114
                 P0001 T01610128 =
2019-07-23 10:54 METAR KLWM 231454Z 05011KT 9SM -RA FEW070 SCT085 BKN110 16/14 A2985 RMK AO2
                 SLP109 P0003 60011 T01610144 50000 =
2019-07-23 10:32 METAR KLWM 231432Z 05009KT 8SM -RA BKN010 BKN090 OVC120 16/14 A2986 RMK AO2
                 P0002 T01610144 =
2019-07-23 10:18 METAR KLWM 231418Z 04011KT 7SM -RA SCT010 BKN029 OVC120 16/14 A2986 RMK AO2
                 P0001 T01610144 =
2019-07-23 09:54 METAR KLWM 231354Z 04008KT 6SM -RA BR OVC009 16/15 A2988 RMK AO2 SLP117 P0004
                 T01610150 =
2019-07-23 08:54 METAR KLWM 231254Z 05011KT 9SM -RA BKN008 BKN020 OVC095 17/16 A2984 RMK AO2
                 SLP104 P0004 T01670156 =
2019-07-23 07:54 METAR KLWM 231154Z 06007KT 5SM RA BR BKN006 BKN013 OVC070 17/16 A2985 RMK AO2
                 SLP109 P0023 60096 70160 T01720161 10178 20172 53011 =
2019-07-23 06:54 METAR KLWM 231054Z 05006KT 3SM -RA BR BKN006 BKN010 OVC041 17/17 A2984 RMK AO2
                 SLP102 P0022 T01720167 =
2019-07-23 06:47 METAR KLWM 231047Z AUTO 04007KT 2 1/2SM RA BR BKN006 OVC037 17/17 A2983 RMK AO2
                 P0021 T01720167 =
2019-07-23 06:39 METAR KLWM 231039Z AUTO 04008KT 2 1/2SM RA BR SCT006 BKN010 OVC033 17/17 A2983
                 RMK AO2 P0019 T01720167 =
2019-07-23 06:27 METAR KLWM 231027Z AUTO 03009KT 2SM RA BR SCT007 BKN018 OVC043 17/17 A2983 RMK
                 AO2 P0016 T01720167 =
2019-07-23 06:01 METAR KLWM 231001Z AUTO 03009KT 1 3/4SM RA BR BKN006 OVC010 17/16 A2983 RMK AO2
                 P0004 T01720161 =
2019-07-23 05:54 METAR KLWM 230954Z AUTO 02010KT 4SM -RA BR OVC006 17/16 A2982 RMK AO2 PRESRR
                 SLP099 P0008 T01720161 =
2019-07-23 05:40 METAR KLWM 230940Z AUTO 04008KT 4SM -RA BR OVC006 17/17 A2981 RMK AO2 P0007
                 T01720167 =
2019-07-23 05:33 METAR KLWM 230933Z AUTO 05008KT 2 1/2SM RA BR OVC007 17/16 A2980 RMK AO2 P0006
                 T01720161 =
2019-07-23 04:54 METAR KLWM 230854Z AUTO 05009KT 10SM -RA BKN007 OVC012 17/17 A2982 RMK AO2 CIG
                 005V009 SLP098 P0017 60043 T01720167 53004 =
2019-07-23 04:41 METAR KLWM 230841Z AUTO 04007KT 10SM -RA BKN006 BKN011 OVC050 17/17 A2982 RMK
                 AO2 P0016 T01720167 =
2019-07-23 04:34 METAR KLWM 230834Z AUTO 04007KT 7SM -RA SCT008 BKN021 OVC050 17/17 A2981 RMK AO2
                 P0016 T01720167 =

Support USWX by starting your Amazon purchase here.